Time;durP1;ratioP1;P1;durP2;ratioP2;P2;SDS_P1;SDS_P2;PMS_P1;PMS_P2;Temp;Humidity;BMP_temperature;BMP_pressure;BME280_temperature;BME280_humidity;BME280_pressure;Samples;Min_cycle;Max_cycle;Signal;HPM_P1;HPM_P2
2023/07/19 00:01:50;;;;;;;4.40;3.72;;;17.40;99.90;;;;;;5062634;28;20086;-88
2023/07/19 00:04:18;;;;;;;3.72;3.40;;;17.70;99.90;;;;;;4998967;28;20027;-89
2023/07/19 00:06:44;;;;;;;4.93;3.78;;;17.30;99.90;;;;;;5072220;28;20157;-90
2023/07/19 00:09:10;;;;;;;4.57;3.53;;;17.70;99.90;;;;;;5072469;28;20067;-90
2023/07/19 00:11:35;;;;;;;4.35;3.60;;;17.70;99.90;;;;;;4969663;28;20038;-90
2023/07/19 00:14:05;;;;;;;3.67;3.38;;;17.60;99.90;;;;;;5075565;28;20039;-89
2023/07/19 00:16:35;;;;;;;5.85;3.78;;;17.50;99.90;;;;;;5060382;28;20539;-89
2023/07/19 00:19:01;;;;;;;3.97;3.58;;;17.40;99.90;;;;;;4992546;28;20034;-88
2023/07/19 00:21:27;;;;;;;4.28;3.75;;;17.40;99.90;;;;;;5007268;28;20095;-89
2023/07/19 00:23:53;;;;;;;5.78;3.55;;;17.40;99.90;;;;;;4966455;28;20046;-90
2023/07/19 00:26:19;;;;;;;6.55;4.03;;;17.40;99.90;;;;;;5067410;28;20055;-88
2023/07/19 00:28:45;;;;;;;4.82;4.07;;;17.50;99.90;;;;;;4953281;28;20054;-87
2023/07/19 00:31:11;;;;;;;4.72;4.22;;;17.40;99.90;;;;;;5068105;28;20038;-89
2023/07/19 00:33:37;;;;;;;4.35;3.75;;;17.50;99.90;;;;;;4961219;28;20049;-89
2023/07/19 00:36:12;;;;;;;6.18;4.38;;;17.40;99.90;;;;;;4963263;28;20054;-89
2023/07/19 00:38:41;;;;;;;4.97;4.18;;;17.40;99.90;;;;;;5058626;28;20104;-89
2023/07/19 00:41:07;;;;;;;4.45;4.03;;;17.40;99.90;;;;;;4974514;28;20050;-90
2023/07/19 00:43:32;;;;;;;4.43;4.03;;;17.50;99.90;;;;;;4969799;28;20074;-90
2023/07/19 00:45:58;;;;;;;5.43;4.10;;;17.50;99.90;;;;;;4986775;28;20049;-88
2023/07/19 00:48:30;;;;;;;6.30;3.95;;;17.50;99.90;;;;;;4956760;28;20046;-88
2023/07/19 00:50:57;;;;;;;7.40;3.90;;;17.50;99.90;;;;;;4947150;28;20050;-89
2023/07/19 00:53:24;;;;;;;5.65;4.63;;;17.40;99.90;;;;;;5010688;28;20047;-88
2023/07/19 00:55:51;;;;;;;4.18;3.40;;;17.30;99.90;;;;;;4996129;28;20121;-88
2023/07/19 00:58:22;;;;;;;5.50;4.07;;;16.30;99.90;;;;;;4982315;28;20034;-89
2023/07/19 01:00:48;;;;;;;4.35;3.40;;;17.30;99.90;;;;;;4966746;28;20427;-88
2023/07/19 01:03:14;;;;;;;4.28;3.40;;;17.20;99.90;;;;;;4977315;28;20100;-88
2023/07/19 01:05:40;;;;;;;4.55;3.80;;;17.20;99.90;;;;;;4991997;28;20495;-89
2023/07/19 01:08:06;;;;;;;5.03;3.28;;;17.20;99.90;;;;;;4974609;28;20065;-89
2023/07/19 01:10:32;;;;;;;4.55;3.30;;;17.20;99.90;;;;;;4984464;28;20130;-90
2023/07/19 01:13:16;;;;;;;6.45;3.10;;;17.20;99.90;;;;;;4969601;28;20084;-89
2023/07/19 01:15:42;;;;;;;4.75;3.22;;;17.10;99.90;;;;;;5090414;28;20121;-89
2023/07/19 01:18:08;;;;;;;3.85;3.28;;;17.10;99.90;;;;;;5046278;28;20066;-89
2023/07/19 01:20:34;;;;;;;4.25;3.42;;;17.60;99.90;;;;;;4960813;28;20174;-90
2023/07/19 01:23:00;;;;;;;4.45;3.45;;;17.10;99.90;;;;;;4983136;28;20101;-89
2023/07/19 01:25:26;;;;;;;4.50;3.15;;;17.20;99.90;;;;;;4963331;28;20049;-89
2023/07/19 01:27:52;;;;;;;3.60;3.08;;;17.20;99.90;;;;;;5061686;28;20043;-89
2023/07/19 01:30:18;;;;;;;4.00;3.53;;;17.30;99.90;;;;;;5067419;28;20050;-89
2023/07/19 01:32:44;;;;;;;7.13;4.15;;;17.20;99.90;;;;;;5065893;28;20390;-89
2023/07/19 01:35:10;;;;;;;4.05;3.63;;;17.20;99.90;;;;;;4972550;28;20044;-89
2023/07/19 01:37:39;;;;;;;5.47;3.75;;;17.50;99.90;;;;;;4997236;28;20038;-88
2023/07/19 01:40:06;;;;;;;3.88;3.30;;;17.00;99.90;;;;;;5045775;28;20121;-88
2023/07/19 01:42:32;;;;;;;8.07;4.75;;;17.00;99.90;;;;;;4970457;28;20042;-90
2023/07/19 01:45:04;;;;;;;3.90;3.42;;;17.00;99.90;;;;;;5005674;28;20505;-88
2023/07/19 01:47:30;;;;;;;4.88;3.55;;;16.90;99.90;;;;;;5036665;28;20068;-88
2023/07/19 01:49:56;;;;;;;4.82;3.45;;;16.90;99.90;;;;;;4973327;28;20047;-88
2023/07/19 01:52:22;;;;;;;8.00;4.35;;;17.00;99.90;;;;;;5069549;28;20589;-90
2023/07/19 01:54:48;;;;;;;6.00;4.10;;;17.00;99.90;;;;;;4974529;28;20530;-88
2023/07/19 01:57:13;;;;;;;5.65;4.32;;;17.10;99.90;;;;;;4992523;28;20046;-89
2023/07/19 01:59:39;;;;;;;5.50;3.45;;;17.10;99.90;;;;;;5062828;28;20035;-89
2023/07/19 02:02:05;;;;;;;5.00;4.38;;;17.10;99.90;;;;;;4971118;28;20097;-89
2023/07/19 02:04:31;;;;;;;6.43;3.95;;;17.10;99.90;;;;;;4974763;28;20043;-89
2023/07/19 02:06:57;;;;;;;6.82;4.38;;;17.20;99.90;;;;;;4942093;28;20047;-90
2023/07/19 02:09:23;;;;;;;6.43;4.95;;;17.20;99.90;;;;;;4984257;28;20133;-89
2023/07/19 02:11:49;;;;;;;9.45;6.10;;;17.20;99.90;;;;;;5017496;28;20523;-89
2023/07/19 02:14:17;;;;;;;5.80;4.40;;;17.30;99.90;;;;;;5014154;28;20046;-88
2023/07/19 02:16:46;;;;;;;7.35;4.18;;;17.30;99.90;;;;;;5070232;28;20038;-89
2023/07/19 02:19:12;;;;;;;7.43;4.88;;;17.30;99.90;;;;;;5050120;28;20042;-90
2023/07/19 02:21:38;;;;;;;5.57;4.80;;;17.20;99.90;;;;;;4972053;28;20391;-89
2023/07/19 02:24:11;;;;;;;11.02;5.47;;;17.20;99.90;;;;;;4991569;28;20134;-88
2023/07/19 02:26:37;;;;;;;6.15;4.68;;;17.30;99.90;;;;;;4976697;28;20066;-89
2023/07/19 02:29:06;;;;;;;8.07;4.93;;;17.30;99.90;;;;;;5070811;28;20049;-88
2023/07/19 02:31:35;;;;;;;6.13;4.65;;;17.30;99.90;;;;;;4976616;28;20042;-89
2023/07/19 02:34:01;;;;;;;6.00;4.32;;;17.20;99.90;;;;;;4970900;28;20049;-89
2023/07/19 02:36:30;;;;;;;6.40;4.45;;;17.20;99.90;;;;;;4970548;28;20061;-89
2023/07/19 02:38:56;;;;;;;5.80;4.63;;;17.10;99.90;;;;;;4952465;28;20104;-89
2023/07/19 02:41:22;;;;;;;5.65;4.60;;;16.50;99.90;;;;;;4968637;28;20117;-89
2023/07/19 02:43:48;;;;;;;7.75;5.03;;;17.20;99.90;;;;;;4972792;28;20587;-90
2023/07/19 02:46:16;;;;;;;6.93;4.97;;;17.20;99.90;;;;;;4971463;28;20047;-90
2023/07/19 02:48:41;;;;;;;6.65;5.25;;;17.90;99.90;;;;;;4975652;28;20041;-89
2023/07/19 02:51:07;;;;;;;6.88;5.13;;;17.20;99.90;;;;;;4968125;28;20042;-89
2023/07/19 02:53:36;;;;;;;5.80;5.20;;;17.20;99.90;;;;;;4989534;28;20049;-90
2023/07/19 02:56:02;;;;;;;5.97;4.72;;;17.20;99.90;;;;;;4967785;28;20046;-89
2023/07/19 02:58:28;;;;;;;6.65;5.13;;;17.10;99.90;;;;;;5070496;28;20039;-90
2023/07/19 03:00:54;;;;;;;5.05;4.53;;;17.20;99.90;;;;;;4952415;28;20130;-88
2023/07/19 03:03:21;;;;;;;5.05;4.50;;;17.10;99.90;;;;;;4974868;28;20085;-89
2023/07/19 03:05:46;;;;;;;8.40;5.15;;;17.20;99.90;;;;;;5059345;28;20363;-90
2023/07/19 03:08:13;;;;;;;6.57;5.03;;;17.20;99.90;;;;;;4970740;28;20062;-87
2023/07/19 03:10:39;;;;;;;6.22;4.38;;;17.10;99.90;;;;;;4990592;28;20050;-89
2023/07/19 03:13:06;;;;;;;7.78;5.25;;;17.20;99.90;;;;;;5052581;28;20100;-89
2023/07/19 03:15:34;;;;;;;7.07;4.93;;;17.20;99.90;;;;;;4957926;28;20039;-88
2023/07/19 03:18:04;;;;;;;5.60;4.70;;;17.20;99.90;;;;;;4965389;28;20501;-88
2023/07/19 03:20:30;;;;;;;5.97;4.88;;;17.20;99.90;;;;;;4997445;28;20041;-88
2023/07/19 03:22:57;;;;;;;5.78;5.03;;;17.20;99.90;;;;;;4969795;28;20047;-89
2023/07/19 03:25:24;;;;;;;6.97;4.97;;;17.20;99.90;;;;;;4986614;28;20035;-89
2023/07/19 03:27:53;;;;;;;6.07;4.57;;;17.20;99.90;;;;;;4978368;28;20054;-89
2023/07/19 03:30:18;;;;;;;5.45;4.88;;;17.40;99.90;;;;;;4968216;28;20045;-88
2023/07/19 03:32:46;;;;;;;8.48;5.13;;;17.20;99.90;;;;;;4996299;28;20125;-88
2023/07/19 03:35:14;;;;;;;5.63;4.97;;;17.20;99.90;;;;;;5020205;28;20034;-88
2023/07/19 03:37:44;;;;;;;7.53;5.47;;;17.20;99.90;;;;;;4959490;28;20078;-90
2023/07/19 03:40:14;;;;;;;9.30;5.20;;;17.00;99.90;;;;;;4970034;28;20038;-88
2023/07/19 03:42:43;;;;;;;7.18;5.00;;;17.00;99.90;;;;;;5087037;28;20096;-88
2023/07/19 03:45:09;;;;;;;8.52;4.57;;;17.00;99.90;;;;;;4977343;28;20440;-89
2023/07/19 03:47:34;;;;;;;8.18;4.78;;;16.90;99.90;;;;;;4959454;28;20047;-88
2023/07/19 03:50:00;;;;;;;7.30;4.70;;;16.90;99.90;;;;;;4964371;28;20054;-89
2023/07/19 03:52:26;;;;;;;6.10;5.50;;;16.90;99.90;;;;;;5000917;28;20034;-89
2023/07/19 03:54:56;;;;;;;5.22;4.55;;;17.00;99.90;;;;;;4972438;28;20046;-89
2023/07/19 03:57:22;;;;;;;8.13;5.50;;;17.00;99.90;;;;;;4989973;28;20039;-89
2023/07/19 03:59:50;;;;;;;7.85;4.90;;;17.00;99.90;;;;;;4999613;28;20091;-89
2023/07/19 04:02:17;;;;;;;8.52;5.13;;;17.10;99.90;;;;;;4961834;28;20081;-88
2023/07/19 04:04:42;;;;;;;7.40;5.18;;;17.10;99.90;;;;;;5061835;28;20066;-90
2023/07/19 04:07:08;;;;;;;10.02;5.85;;;17.10;99.90;;;;;;4976369;28;20522;-88
2023/07/19 04:09:37;;;;;;;6.65;5.82;;;17.20;99.90;;;;;;5066745;28;20179;-88
2023/07/19 04:12:04;;;;;;;7.60;6.45;;;17.10;99.90;;;;;;4981291;28;20043;-89
2023/07/19 04:14:29;;;;;;;8.75;6.38;;;17.20;99.90;;;;;;5043025;28;20133;-89
2023/07/19 04:16:55;;;;;;;7.07;5.47;;;17.20;99.90;;;;;;4972415;28;21073;-88
2023/07/19 04:19:21;;;;;;;9.15;6.28;;;17.20;99.90;;;;;;4981518;28;20088;-87
2023/07/19 04:21:46;;;;;;;7.30;5.32;;;17.20;99.90;;;;;;4950604;28;20154;-88
2023/07/19 04:24:12;;;;;;;7.88;5.72;;;17.10;99.90;;;;;;4951572;28;20038;-88
2023/07/19 04:26:38;;;;;;;7.40;5.68;;;17.30;99.90;;;;;;4980526;28;20081;-89
2023/07/19 04:29:04;;;;;;;6.32;5.25;;;17.20;99.90;;;;;;5059774;28;20058;-91
2023/07/19 04:31:29;;;;;;;10.00;5.43;;;17.30;99.90;;;;;;4972669;28;20134;-88
2023/07/19 04:33:55;;;;;;;5.93;5.32;;;17.30;99.90;;;;;;5001568;28;20037;-88
2023/07/19 04:36:21;;;;;;;6.68;5.65;;;17.40;99.90;;;;;;4959191;28;20035;-89
2023/07/19 04:38:47;;;;;;;9.40;6.35;;;17.40;99.90;;;;;;5049934;28;20493;-90
2023/07/19 04:41:15;;;;;;;7.40;5.38;;;17.40;99.90;;;;;;4970471;28;20501;-90
2023/07/19 04:43:53;;;;;;;6.25;5.60;;;17.50;99.90;;;;;;5069500;28;20046;-89
2023/07/19 04:46:20;;;;;;;9.60;6.25;;;17.40;99.90;;;;;;5053135;28;20053;-88
2023/07/19 04:48:45;;;;;;;8.82;5.72;;;17.40;99.90;;;;;;5003656;28;20648;-89
2023/07/19 04:51:14;;;;;;;8.27;5.85;;;17.40;99.90;;;;;;5062169;28;20090;-89
2023/07/19 04:53:39;;;;;;;8.52;5.78;;;17.50;99.90;;;;;;4990576;28;20074;-90
2023/07/19 04:56:06;;;;;;;7.72;6.82;;;17.40;99.90;;;;;;4970769;28;20042;-88
2023/07/19 04:58:34;;;;;;;8.80;6.30;;;17.50;99.90;;;;;;5023162;28;20506;-90
2023/07/19 05:01:05;;;;;;;6.93;6.25;;;17.50;99.90;;;;;;4972032;28;20054;-90
2023/07/19 05:03:31;;;;;;;8.77;6.18;;;17.50;99.90;;;;;;4973654;28;20078;-90
2023/07/19 05:05:57;;;;;;;8.55;6.70;;;17.50;99.90;;;;;;5082264;28;20440;-88
2023/07/19 05:08:23;;;;;;;9.75;6.85;;;17.60;99.90;;;;;;5045597;28;20143;-89
2023/07/19 05:10:48;;;;;;;8.27;6.35;;;17.50;99.90;;;;;;4960113;28;20042;-90
2023/07/19 05:13:14;;;;;;;10.48;7.07;;;17.60;99.90;;;;;;4975030;28;20504;-91
2023/07/19 05:15:40;;;;;;;8.57;6.18;;;17.60;99.90;;;;;;4954718;28;20438;-89
2023/07/19 05:18:06;;;;;;;9.23;6.72;;;17.10;99.90;;;;;;4963816;28;20042;-89
2023/07/19 05:20:31;;;;;;;7.18;6.47;;;17.50;99.90;;;;;;4947261;28;20076;-89
2023/07/19 05:22:59;;;;;;;7.00;6.25;;;17.60;99.90;;;;;;4966267;28;20047;-88
2023/07/19 05:25:25;;;;;;;10.13;6.60;;;17.70;99.90;;;;;;5002031;28;20047;-89
2023/07/19 05:27:51;;;;;;;9.50;6.30;;;17.70;99.90;;;;;;4997932;28;20156;-91
2023/07/19 05:30:17;;;;;;;9.38;6.20;;;17.70;99.90;;;;;;4963019;28;20054;-91
2023/07/19 05:32:43;;;;;;;7.10;6.40;;;17.90;99.90;;;;;;4967914;28;20432;-88
2023/07/19 05:35:09;;;;;;;9.05;5.75;;;18.00;99.90;;;;;;4960118;28;20027;-90
2023/07/19 05:37:35;;;;;;;6.30;5.53;;;17.90;99.90;;;;;;4990431;28;20092;-90
2023/07/19 05:40:01;;;;;;;8.60;4.93;;;18.00;99.90;;;;;;4947917;28;20041;-90
2023/07/19 05:42:27;;;;;;;9.00;6.25;;;18.00;99.90;;;;;;5063324;28;20042;-90
2023/07/19 05:44:53;;;;;;;8.05;5.65;;;17.90;99.90;;;;;;5036167;28;20394;-91
2023/07/19 05:47:19;;;;;;;6.30;5.43;;;18.00;99.90;;;;;;4947530;28;20360;-89
2023/07/19 05:49:45;;;;;;;8.57;6.10;;;17.90;99.90;;;;;;5041749;28;20053;-90
2023/07/19 05:52:12;;;;;;;10.27;6.00;;;18.60;99.90;;;;;;4979860;28;20046;-92
2023/07/19 05:54:38;;;;;;;9.70;6.30;;;18.00;99.90;;;;;;4971259;28;20083;-91
2023/07/19 05:57:04;;;;;;;9.13;5.40;;;17.90;99.90;;;;;;5049108;28;20028;-90
2023/07/19 05:59:30;;;;;;;8.40;5.55;;;18.00;99.90;;;;;;4997500;28;20597;-91
2023/07/19 06:01:56;;;;;;;8.88;5.80;;;18.10;99.90;;;;;;5058816;28;20057;-88
2023/07/19 06:04:22;;;;;;;5.72;4.93;;;18.00;99.90;;;;;;5057899;28;20096;-89
2023/07/19 06:06:49;;;;;;;7.28;4.85;;;18.00;99.90;;;;;;4960868;28;20114;-90
2023/07/19 06:09:17;;;;;;;5.35;4.25;;;18.00;99.90;;;;;;4982376;28;20048;-88
2023/07/19 06:11:44;;;;;;;7.15;4.50;;;18.00;99.90;;;;;;4960799;28;20652;-88
2023/07/19 06:14:10;;;;;;;8.02;3.92;;;18.10;99.90;;;;;;4978245;28;20056;-89
2023/07/19 06:16:37;;;;;;;7.43;3.85;;;18.10;99.90;;;;;;4984723;28;20129;-88
2023/07/19 06:19:02;;;;;;;8.05;4.00;;;18.00;99.90;;;;;;4976192;28;20501;-89
2023/07/19 06:21:34;;;;;;;6.18;3.40;;;18.00;99.90;;;;;;4989249;28;20068;-88
2023/07/19 06:24:01;;;;;;;6.10;2.90;;;18.30;99.90;;;;;;5054418;28;20039;-89
2023/07/19 06:26:27;;;;;;;4.60;3.20;;;17.80;99.90;;;;;;4980635;28;20042;-88
2023/07/19 06:28:53;;;;;;;6.05;2.92;;;17.70;99.90;;;;;;4995029;28;20417;-90
2023/07/19 06:31:24;;;;;;;5.60;2.63;;;17.70;99.90;;;;;;5076086;28;20040;-89
2023/07/19 06:33:50;;;;;;;4.68;2.60;;;17.40;99.90;;;;;;4986312;28;20032;-87
2023/07/19 06:36:15;;;;;;;3.92;2.50;;;17.50;99.90;;;;;;5068130;28;20085;-91
2023/07/19 06:38:41;;;;;;;9.15;2.67;;;17.60;99.90;;;;;;5015649;28;20518;-88
2023/07/19 06:41:07;;;;;;;3.13;2.45;;;17.50;99.90;;;;;;5068509;28;20039;-89
2023/07/19 06:43:33;;;;;;;5.03;2.70;;;17.50;99.90;;;;;;5056582;28;20077;-90
2023/07/19 06:45:59;;;;;;;4.82;2.40;;;17.50;99.90;;;;;;5038076;28;20096;-90
2023/07/19 06:48:25;;;;;;;3.08;2.10;;;17.50;99.90;;;;;;4973755;28;20083;-89
2023/07/19 06:50:51;;;;;;;3.90;2.00;;;17.60;99.90;;;;;;4967636;28;20379;-88
2023/07/19 06:53:19;;;;;;;3.35;2.00;;;17.70;99.90;;;;;;4997275;28;20039;-89
2023/07/19 06:55:45;;;;;;;3.03;1.77;;;17.80;99.90;;;;;;5068321;28;20043;-89
2023/07/19 06:58:11;;;;;;;3.90;1.90;;;17.80;99.90;;;;;;4980265;28;20072;-89
2023/07/19 07:00:37;;;;;;;4.28;1.77;;;17.80;99.90;;;;;;5040741;28;20046;-90
2023/07/19 07:03:03;;;;;;;5.70;2.15;;;17.90;99.90;;;;;;5055595;28;20040;-88
2023/07/19 07:05:35;;;;;;;3.50;1.90;;;17.90;99.90;;;;;;4978796;28;20065;-88
2023/07/19 07:08:03;;;;;;;11.88;2.55;;;18.10;99.90;;;;;;4998771;28;20054;-89
2023/07/19 07:10:29;;;;;;;2.80;1.83;;;18.30;99.90;;;;;;4979147;28;20095;-90
2023/07/19 07:12:55;;;;;;;4.68;1.92;;;18.30;99.90;;;;;;4990965;28;20046;-89
2023/07/19 07:15:21;;;;;;;2.45;2.00;;;18.30;99.90;;;;;;5069377;28;20070;-89
2023/07/19 07:17:48;;;;;;;5.50;2.63;;;18.40;99.90;;;;;;4975952;28;20053;-90
2023/07/19 07:20:18;;;;;;;5.68;2.78;;;18.50;99.90;;;;;;5055684;28;20054;-91
2023/07/19 07:22:43;;;;;;;4.47;2.15;;;18.00;99.90;;;;;;4966705;28;20039;-91
2023/07/19 07:25:10;;;;;;;3.47;2.15;;;18.60;99.90;;;;;;4986363;28;20683;-89
2023/07/19 07:27:42;;;;;;;4.45;2.25;;;18.80;99.90;;;;;;4976459;28;20039;-89
2023/07/19 07:30:09;;;;;;;2.88;2.20;;;19.00;99.90;;;;;;5029663;28;20053;-89
2023/07/19 07:32:35;;;;;;;4.03;1.98;;;19.00;99.90;;;;;;4950858;28;20046;-90
2023/07/19 07:35:02;;;;;;;6.45;2.80;;;19.00;99.90;;;;;;4966894;28;20042;-90
2023/07/19 07:37:31;;;;;;;4.47;2.45;;;19.20;99.90;;;;;;4958438;28;20088;-89
2023/07/19 07:39:56;;;;;;;5.38;2.58;;;19.50;99.90;;;;;;5062086;28;20122;-89
2023/07/19 07:42:23;;;;;;;3.97;2.20;;;19.10;99.90;;;;;;4956454;28;20106;-89
2023/07/19 07:44:49;;;;;;;4.03;1.90;;;19.10;99.90;;;;;;5056513;28;20092;-90
2023/07/19 07:47:15;;;;;;;4.60;2.42;;;19.20;99.90;;;;;;5061639;28;20049;-89
2023/07/19 07:49:41;;;;;;;4.57;2.10;;;19.20;99.90;;;;;;4951243;28;20042;-92
2023/07/19 07:52:11;;;;;;;3.42;1.70;;;19.20;99.90;;;;;;4987357;28;20042;-91
2023/07/19 07:54:39;;;;;;;4.55;2.00;;;19.30;99.90;;;;;;4964456;28;20645;-91
2023/07/19 07:57:08;;;;;;;4.95;1.67;;;19.30;99.90;;;;;;4984275;28;20074;-91
2023/07/19 07:59:34;;;;;;;3.33;1.70;;;19.30;99.90;;;;;;4983308;28;20037;-89
2023/07/19 08:01:59;;;;;;;3.10;1.42;;;19.60;99.90;;;;;;4974985;28;20403;-90
2023/07/19 08:04:27;;;;;;;3.10;1.38;;;19.70;99.90;;;;;;4970481;28;20082;-90
2023/07/19 08:06:53;;;;;;;2.83;1.75;;;19.60;99.90;;;;;;5046753;28;20050;-89
2023/07/19 08:09:20;;;;;;;2.78;1.48;;;19.70;99.90;;;;;;5064336;28;20041;-88
2023/07/19 08:11:46;;;;;;;3.20;1.95;;;19.90;99.90;;;;;;4968504;28;20406;-89
2023/07/19 08:14:12;;;;;;;3.42;2.00;;;19.80;99.90;;;;;;4958720;28;20043;-90
2023/07/19 08:16:40;;;;;;;5.45;2.30;;;19.80;99.90;;;;;;5039858;28;20509;-89
2023/07/19 08:19:06;;;;;;;4.45;1.85;;;20.00;99.90;;;;;;4952793;28;20039;-89
2023/07/19 08:21:32;;;;;;;4.38;2.58;;;20.00;99.90;;;;;;5067653;28;20069;-91
2023/07/19 08:23:58;;;;;;;6.35;2.33;;;19.80;99.90;;;;;;4940765;28;20129;-90
2023/07/19 08:26:23;;;;;;;7.00;2.72;;;19.80;99.90;;;;;;4967200;28;20034;-88
2023/07/19 08:28:49;;;;;;;3.45;1.70;;;19.90;99.90;;;;;;5044291;28;20462;-89
2023/07/19 08:31:16;;;;;;;4.35;1.95;;;20.00;99.90;;;;;;4959183;28;20065;-90
2023/07/19 08:33:42;;;;;;;2.92;1.58;;;20.10;99.90;;;;;;4952141;28;20046;-89
2023/07/19 08:36:07;;;;;;;8.30;1.98;;;20.10;99.90;;;;;;4956426;28;20038;-89
2023/07/19 08:38:33;;;;;;;3.38;1.73;;;20.20;99.90;;;;;;4962582;28;20088;-90
2023/07/19 08:41:01;;;;;;;4.15;1.70;;;20.20;99.90;;;;;;4965194;28;20085;-88
2023/07/19 08:43:27;;;;;;;3.92;1.52;;;20.50;99.90;;;;;;4961960;28;20047;-90
2023/07/19 08:45:54;;;;;;;5.28;1.58;;;20.70;99.90;;;;;;4959550;28;20035;-89
2023/07/19 08:48:20;;;;;;;4.72;1.63;;;21.00;99.90;;;;;;5009852;28;20068;-87
2023/07/19 08:50:54;;;;;;;4.28;1.80;;;21.30;99.90;;;;;;4951751;28;20070;-90
2023/07/19 08:53:20;;;;;;;2.42;1.48;;;21.40;99.90;;;;;;5064972;28;20043;-89
2023/07/19 08:55:46;;;;;;;3.47;1.77;;;21.30;99.90;;;;;;4945927;28;20050;-91
2023/07/19 08:58:11;;;;;;;6.70;1.60;;;21.20;99.90;;;;;;4964234;28;20057;-90
2023/07/19 09:00:38;;;;;;;2.63;1.35;;;21.30;99.90;;;;;;4970145;28;20035;-90
2023/07/19 09:03:04;;;;;;;4.18;1.42;;;21.40;99.90;;;;;;4955441;28;20042;-90
2023/07/19 09:05:30;;;;;;;6.10;2.00;;;21.50;99.90;;;;;;4971140;28;20402;-89
2023/07/19 09:08:00;;;;;;;3.28;1.45;;;22.10;99.90;;;;;;4960399;28;20130;-88
2023/07/19 09:10:26;;;;;;;3.95;1.70;;;21.60;99.90;;;;;;5063620;28;20058;-89
2023/07/19 09:12:52;;;;;;;4.18;1.80;;;21.60;99.90;;;;;;4951984;28;20050;-88
2023/07/19 09:15:18;;;;;;;5.68;1.67;;;21.40;99.90;;;;;;4972298;28;20398;-88
2023/07/19 09:17:46;;;;;;;3.67;1.60;;;21.30;99.90;;;;;;4959318;28;20045;-88
2023/07/19 09:20:13;;;;;;;2.65;1.50;;;20.80;99.90;;;;;;4982869;28;20064;-89
2023/07/19 09:22:39;;;;;;;3.38;1.65;;;20.30;99.90;;;;;;4973215;28;20045;-89
2023/07/19 09:25:09;;;;;;;3.15;1.38;;;20.10;99.90;;;;;;5002677;28;20053;-88
2023/07/19 09:27:36;;;;;;;4.88;1.88;;;20.00;99.90;;;;;;4994954;28;20091;-89
2023/07/19 09:30:08;;;;;;;4.20;1.92;;;20.20;99.90;;;;;;4971832;28;20050;-88
2023/07/19 09:32:34;;;;;;;9.32;2.20;;;20.20;99.90;;;;;;4977010;28;20043;-90
2023/07/19 09:35:03;;;;;;;5.05;1.95;;;20.30;99.90;;;;;;5002853;28;20071;-89
2023/07/19 09:37:29;;;;;;;4.13;2.05;;;20.30;99.90;;;;;;4960260;28;20034;-88
2023/07/19 09:39:56;;;;;;;3.55;1.90;;;20.40;99.90;;;;;;4962167;28;20076;-89
2023/07/19 09:42:24;;;;;;;2.85;1.75;;;20.40;99.90;;;;;;5021493;28;20059;-89
2023/07/19 09:44:50;;;;;;;3.97;1.88;;;20.60;99.90;;;;;;5042170;28;20054;-89
2023/07/19 09:47:17;;;;;;;2.95;2.10;;;20.80;99.90;;;;;;4966857;28;20390;-90
2023/07/19 09:49:43;;;;;;;4.93;2.08;;;20.70;99.90;;;;;;5058563;28;20053;-89
2023/07/19 09:52:15;;;;;;;2.30;1.48;;;20.50;99.90;;;;;;4984576;28;20125;-90
2023/07/19 09:54:43;;;;;;;2.42;1.65;;;20.40;99.90;;;;;;5066627;28;20050;-89
2023/07/19 09:57:09;;;;;;;5.68;2.38;;;20.10;99.90;;;;;;5071358;28;20038;-89
2023/07/19 09:59:45;;;;;;;4.05;1.92;;;20.30;99.90;;;;;;4988754;28;20039;-89
2023/07/19 10:02:12;;;;;;;2.67;1.58;;;20.90;99.90;;;;;;5057112;28;20045;-88
2023/07/19 10:04:39;;;;;;;1.98;1.67;;;20.50;99.90;;;;;;4978107;28;20050;-89
2023/07/19 10:07:08;;;;;;;3.90;1.70;;;20.30;99.90;;;;;;4959032;28;20054;-89
2023/07/19 10:09:38;;;;;;;2.42;1.70;;;20.20;99.90;;;;;;4990761;28;20042;-89
2023/07/19 10:12:08;;;;;;;6.50;1.90;;;20.30;99.90;;;;;;4961989;28;20027;-88
2023/07/19 10:14:34;;;;;;;4.72;1.50;;;20.30;99.90;;;;;;5059289;28;20433;-88
2023/07/19 10:17:03;;;;;;;2.38;1.58;;;20.50;99.90;;;;;;4969124;28;20038;-89
2023/07/19 10:19:29;;;;;;;2.72;1.23;;;20.60;99.90;;;;;;4978414;28;20038;-89
2023/07/19 10:22:23;;;;;;;1.88;1.20;;;21.60;99.90;;;;;;5068885;28;20041;-90
2023/07/19 10:25:03;;;;;;;2.55;1.50;;;22.50;99.90;;;;;;4972786;28;20615;-90
2023/07/19 10:27:36;;;;;;;3.35;1.60;;;21.80;99.90;;;;;;4963371;28;20470;-91
2023/07/19 10:30:06;;;;;;;3.47;1.38;;;21.60;99.90;;;;;;4965653;28;20043;-89
2023/07/19 10:32:31;;;;;;;5.72;1.70;;;21.00;99.90;;;;;;5042641;28;20066;-90
2023/07/19 10:34:57;;;;;;;5.10;1.75;;;20.50;99.90;;;;;;4981439;28;20478;-89
2023/07/19 10:37:23;;;;;;;3.42;1.85;;;20.50;99.90;;;;;;4972702;28;20043;-89
2023/07/19 10:39:49;;;;;;;3.80;1.50;;;20.50;99.90;;;;;;5040398;28;20126;-90
2023/07/19 10:42:17;;;;;;;4.15;1.48;;;20.90;99.90;;;;;;5059957;28;20030;-88
2023/07/19 10:44:44;;;;;;;2.42;1.25;;;21.10;99.90;;;;;;5059951;28;20035;-89
2023/07/19 10:47:14;;;;;;;4.13;1.65;;;21.50;99.90;;;;;;4952011;28;20045;-89
2023/07/19 10:49:40;;;;;;;3.60;1.48;;;21.90;99.90;;;;;;4986199;28;20026;-89
2023/07/19 10:52:07;;;;;;;2.65;1.40;;;21.20;99.90;;;;;;5053433;28;20044;-89
2023/07/19 10:54:33;;;;;;;2.13;1.25;;;21.10;99.90;;;;;;4997155;28;20483;-89
2023/07/19 10:57:00;;;;;;;2.78;1.25;;;21.00;99.90;;;;;;5038530;28;20049;-90
2023/07/19 10:59:26;;;;;;;2.58;1.20;;;20.90;99.90;;;;;;4987756;28;20459;-89
2023/07/19 11:01:52;;;;;;;1.40;1.10;;;20.70;99.90;;;;;;5038743;28;20099;-89
2023/07/19 11:04:18;;;;;;;1.83;1.40;;;20.60;99.90;;;;;;5051827;28;20085;-88
2023/07/19 11:06:59;;;;;;;3.08;1.35;;;20.40;99.90;;;;;;4955808;28;20059;-89
2023/07/19 11:09:25;;;;;;;1.83;1.30;;;20.50;99.90;;;;;;5088630;28;20091;-90
2023/07/19 11:11:51;;;;;;;2.75;1.40;;;20.60;99.90;;;;;;4976468;28;20125;-90
2023/07/19 11:14:33;;;;;;;3.03;1.20;;;20.90;99.90;;;;;;4957137;28;20046;-90
2023/07/19 11:17:00;;;;;;;2.00;1.13;;;21.40;99.90;;;;;;4957804;28;20102;-90
2023/07/19 11:19:36;;;;;;;2.47;1.20;;;21.00;99.90;;;;;;4952120;28;20081;-91
2023/07/19 11:22:04;;;;;;;1.90;1.02;;;21.10;99.90;;;;;;4954475;28;20098;-91
2023/07/19 11:24:34;;;;;;;2.78;0.93;;;21.30;99.90;;;;;;4974194;28;20041;-90
2023/07/19 11:27:01;;;;;;;2.70;1.27;;;21.00;99.90;;;;;;4978245;28;20184;-90
2023/07/19 11:29:34;;;;;;;2.22;1.15;;;20.60;99.90;;;;;;4954193;28;20471;-91
2023/07/19 11:32:20;;;;;;;1.70;1.10;;;20.70;99.90;;;;;;5055724;28;20383;-90
2023/07/19 11:34:54;;;;;;;2.88;1.30;;;20.70;99.90;;;;;;5050655;28;20050;-91
2023/07/19 11:37:31;;;;;;;1.85;1.23;;;20.60;99.90;;;;;;4968840;28;20042;-90
2023/07/19 11:39:59;;;;;;;1.80;1.30;;;21.70;99.90;;;;;;4973705;28;20034;-90
2023/07/19 11:42:43;;;;;;;1.98;1.00;;;22.00;99.90;;;;;;4954062;28;20069;-90
2023/07/19 11:45:25;;;;;;;4.30;1.15;;;22.00;99.90;;;;;;4957296;28;20069;-90
2023/07/19 11:47:58;;;;;;;1.52;0.98;;;22.30;99.90;;;;;;5066527;28;20049;-89
2023/07/19 11:50:26;;;;;;;1.77;1.10;;;22.50;99.90;;;;;;4958377;28;20047;-89
2023/07/19 11:52:59;;;;;;;1.73;1.20;;;22.20;99.90;;;;;;4980448;28;20134;-92
2023/07/19 11:55:25;;;;;;;1.77;1.00;;;22.20;99.90;;;;;;4977251;28;20121;-91
2023/07/19 11:57:52;;;;;;;1.67;1.00;;;22.70;99.90;;;;;;4969763;28;20489;-91
2023/07/19 12:00:20;;;;;;;4.13;1.17;;;22.80;99.90;;;;;;5017457;28;20038;-90
2023/07/19 12:02:48;;;;;;;1.73;1.02;;;22.70;99.90;;;;;;4992879;28;20086;-92
2023/07/19 12:05:19;;;;;;;1.85;0.85;;;22.80;99.90;;;;;;4974160;28;20050;-89
2023/07/19 12:07:47;;;;;;;1.20;0.90;;;22.50;99.90;;;;;;4972033;28;20058;-90
2023/07/19 12:10:12;;;;;;;2.55;1.08;;;22.40;99.90;;;;;;5058007;28;20057;-89
2023/07/19 12:12:39;;;;;;;1.80;0.95;;;21.80;99.90;;;;;;4972815;28;20042;-90
2023/07/19 12:15:08;;;;;;;1.65;0.98;;;22.10;99.90;;;;;;4973107;28;20490;-91
2023/07/19 12:17:36;;;;;;;2.05;0.95;;;22.20;99.90;;;;;;5019074;28;20690;-90
2023/07/19 12:20:06;;;;;;;1.30;0.95;;;21.80;99.90;;;;;;5058274;28;20126;-89
2023/07/19 12:22:36;;;;;;;1.60;0.90;;;21.50;99.90;;;;;;4963542;28;20038;-90
2023/07/19 12:25:03;;;;;;;1.55;1.00;;;21.90;99.90;;;;;;4957483;28;20050;-89
2023/07/19 12:27:30;;;;;;;2.40;1.20;;;21.70;99.90;;;;;;4970157;28;20048;-89
2023/07/19 12:29:56;;;;;;;3.53;1.10;;;22.10;99.90;;;;;;4966036;28;20045;-90
2023/07/19 12:32:23;;;;;;;1.23;0.82;;;22.50;99.90;;;;;;4976460;28;20425;-89
2023/07/19 12:34:48;;;;;;;1.55;1.10;;;22.30;99.90;;;;;;4976302;28;20597;-90
2023/07/19 12:37:14;;;;;;;2.33;1.23;;;22.00;99.90;;;;;;4975599;28;20040;-90
2023/07/19 12:39:43;;;;;;;1.15;0.90;;;22.30;99.90;;;;;;4981610;28;20040;-91
2023/07/19 12:42:10;;;;;;;3.30;0.90;;;22.20;99.90;;;;;;4995759;28;20045;-91
2023/07/19 12:44:37;;;;;;;1.50;0.98;;;21.80;99.90;;;;;;4973067;28;20043;-90
2023/07/19 12:47:06;;;;;;;0.95;0.77;;;21.90;99.90;;;;;;4975634;28;20080;-89